sensor_id;sensor_type;location;lat;lon;timestamp;pressure;altitude;pressure_sealevel;temperature;humidity
8280;BME280;8335;42.646;23.380;2023-02-12T00:00:14;141831.06;;;0.84;49.55
8280;BME280;8335;42.646;23.380;2023-02-12T00:02:41;141829.81;;;0.83;50.88
8280;BME280;8335;42.646;23.380;2023-02-12T00:05:08;141824.91;;;0.81;50.82
8280;BME280;8335;42.646;23.380;2023-02-12T00:07:36;141839.72;;;0.88;50.84
8280;BME280;8335;42.646;23.380;2023-02-12T00:10:03;141832.28;;;0.85;50.96
8280;BME280;8335;42.646;23.380;2023-02-12T00:12:30;141843.41;;;0.89;51.03
8280;BME280;8335;42.646;23.380;2023-02-12T00:14:56;141850.78;;;0.92;50.99
8280;BME280;8335;42.646;23.380;2023-02-12T00:17:23;141855.75;;;0.94;50.24
8280;BME280;8335;42.646;23.380;2023-02-12T00:19:50;141860.66;;;0.96;50.30
8280;BME280;8335;42.646;23.380;2023-02-12T00:22:17;141854.50;;;0.94;50.45
8280;BME280;8335;42.646;23.380;2023-02-12T00:24:45;141844.63;;;0.90;50.26
8280;BME280;8335;42.646;23.380;2023-02-12T00:27:11;141840.94;;;0.88;49.79
8280;BME280;8335;42.646;23.380;2023-02-12T00:29:38;141833.50;;;0.85;50.44
8280;BME280;8335;42.646;23.380;2023-02-12T00:32:06;141764.50;;;0.57;50.18
8280;BME280;8335;42.646;23.380;2023-02-12T00:34:33;141827.38;;;0.82;50.03
8280;BME280;8335;42.646;23.380;2023-02-12T00:36:59;141839.72;;;0.88;49.73
8280;BME280;8335;42.646;23.380;2023-02-12T00:39:26;141836.03;;;0.86;49.59
8280;BME280;8335;42.646;23.380;2023-02-12T00:41:54;141821.22;;;0.80;49.24
8280;BME280;8335;42.646;23.380;2023-02-12T00:44:21;141823.69;;;0.81;50.32
8280;BME280;8335;42.646;23.380;2023-02-12T00:46:48;141816.25;;;0.78;50.18
8280;BME280;8335;42.646;23.380;2023-02-12T00:49:14;141845.84;;;0.90;50.06
8280;BME280;8335;42.646;23.380;2023-02-12T00:51:43;141839.72;;;0.88;49.78
8280;BME280;8335;42.646;23.380;2023-02-12T00:54:10;141845.84;;;0.90;49.60
8280;BME280;8335;42.646;23.380;2023-02-12T00:56:36;141824.91;;;0.81;50.44
8280;BME280;8335;42.646;23.380;2023-02-12T00:59:05;141828.59;;;0.83;50.15
8280;BME280;8335;42.646;23.380;2023-02-12T01:01:31;141818.75;;;0.79;49.92
8280;BME280;8335;42.646;23.380;2023-02-12T01:03:58;141773.13;;;0.60;50.24
8280;BME280;8335;42.646;23.380;2023-02-12T01:06:25;141808.88;;;0.75;50.18
8280;BME280;8335;42.646;23.380;2023-02-12T01:08:52;141815.03;;;0.77;49.87
8280;BME280;8335;42.646;23.380;2023-02-12T01:11:19;141794.06;;;0.69;49.39
8280;BME280;8335;42.646;23.380;2023-02-12T01:13:46;141817.47;;;0.78;50.17
8280;BME280;8335;42.646;23.380;2023-02-12T01:16:16;141810.09;;;0.75;49.87
8280;BME280;8335;42.646;23.380;2023-02-12T01:18:43;141829.81;;;0.83;50.31
8280;BME280;8335;42.646;23.380;2023-02-12T01:21:12;141834.75;;;0.86;50.20
8280;BME280;8335;42.646;23.380;2023-02-12T01:23:40;141842.16;;;0.89;50.22
8280;BME280;8335;42.646;23.380;2023-02-12T01:26:07;141849.53;;;0.92;49.94
8280;BME280;8335;42.646;23.380;2023-02-12T01:28:36;141849.53;;;0.92;50.33
8280;BME280;8335;42.646;23.380;2023-02-12T01:31:07;141856.97;;;0.95;50.06
8280;BME280;8335;42.646;23.380;2023-02-12T01:33:35;141855.75;;;0.94;50.54
8280;BME280;8335;42.646;23.380;2023-02-12T01:36:02;141869.25;;;1.00;50.43
8280;BME280;8335;42.646;23.380;2023-02-12T01:38:30;141823.69;;;0.81;49.98
8280;BME280;8335;42.646;23.380;2023-02-12T01:41:01;141887.81;;;1.07;49.97
8280;BME280;8335;42.646;23.380;2023-02-12T01:43:28;141889.03;;;1.08;50.11
8280;BME280;8335;42.646;23.380;2023-02-12T01:45:57;141886.53;;;1.07;50.85
8280;BME280;8335;42.646;23.380;2023-02-12T01:48:26;141893.94;;;1.10;50.28
8280;BME280;8335;42.646;23.380;2023-02-12T01:50:56;141879.16;;;1.04;50.35
8280;BME280;8335;42.646;23.380;2023-02-12T01:53:26;141891.50;;;1.09;51.11
8280;BME280;8335;42.646;23.380;2023-02-12T01:55:57;141882.84;;;1.05;50.49
8280;BME280;8335;42.646;23.380;2023-02-12T01:58:28;141902.56;;;1.14;51.21
8280;BME280;8335;42.646;23.380;2023-02-12T02:00:56;141892.72;;;1.09;51.01
8280;BME280;8335;42.646;23.380;2023-02-12T02:03:25;141897.63;;;1.12;51.09
8280;BME280;8335;42.646;23.380;2023-02-12T02:05:57;141880.38;;;1.04;51.12
8280;BME280;8335;42.646;23.380;2023-02-12T02:08:26;141860.66;;;0.96;51.07
8280;BME280;8335;42.646;23.380;2023-02-12T02:10:53;141882.84;;;1.05;51.05
8280;BME280;8335;42.646;23.380;2023-02-12T02:13:20;141881.59;;;1.05;50.65
8280;BME280;8335;42.646;23.380;2023-02-12T02:16:10;141880.38;;;1.04;51.55
8280;BME280;8335;42.646;23.380;2023-02-12T02:18:43;141856.97;;;0.95;51.58
8280;BME280;8335;42.646;23.380;2023-02-12T02:24:25;141824.91;;;0.81;52.39
8280;BME280;8335;42.646;23.380;2023-02-12T02:27:16;141815.03;;;0.77;52.85
8280;BME280;8335;42.646;23.380;2023-02-12T02:30:31;141811.34;;;0.76;53.39
8280;BME280;8335;42.646;23.380;2023-02-12T02:33:14;141808.88;;;0.75;53.53
8280;BME280;8335;42.646;23.380;2023-02-12T02:35:52;141794.06;;;0.69;53.71
8280;BME280;8335;42.646;23.380;2023-02-12T02:38:24;141790.38;;;0.67;53.54
8280;BME280;8335;42.646;23.380;2023-02-12T02:40:59;141757.13;;;0.53;54.34
8280;BME280;8335;42.646;23.380;2023-02-12T02:43:30;141763.25;;;0.56;54.44
8280;BME280;8335;42.646;23.380;2023-02-12T02:46:02;141781.75;;;0.64;54.47
8280;BME280;8335;42.646;23.380;2023-02-12T02:48:34;141631.44;;;0.02;53.85
8280;BME280;8335;42.646;23.380;2023-02-12T02:51:04;141801.50;;;0.72;54.61
8280;BME280;8335;42.646;23.380;2023-02-12T02:53:37;141818.75;;;0.79;53.77
8280;BME280;8335;42.646;23.380;2023-02-12T02:56:07;141827.38;;;0.82;54.24
8280;BME280;8335;42.646;23.380;2023-02-12T02:58:40;141848.31;;;0.91;54.18
8280;BME280;8335;42.646;23.380;2023-02-12T03:01:13;141840.94;;;0.88;54.36
8280;BME280;8335;42.646;23.380;2023-02-12T03:03:46;141836.03;;;0.86;54.67
8280;BME280;8335;42.646;23.380;2023-02-12T03:06:32;141853.28;;;0.93;54.29
8280;BME280;8335;42.646;23.380;2023-02-12T03:09:03;141864.34;;;0.98;54.31
8280;BME280;8335;42.646;23.380;2023-02-12T03:11:32;141849.53;;;0.92;54.46
8280;BME280;8335;42.646;23.380;2023-02-12T03:14:03;141844.63;;;0.90;54.08
8280;BME280;8335;42.646;23.380;2023-02-12T03:16:38;141880.38;;;1.04;54.55
8280;BME280;8335;42.646;23.380;2023-02-12T03:19:11;141861.88;;;0.97;54.62
8280;BME280;8335;42.646;23.380;2023-02-12T03:21:43;141868.03;;;0.99;55.21
8280;BME280;8335;42.646;23.380;2023-02-12T03:24:15;141874.22;;;1.02;55.24
8280;BME280;8335;42.646;23.380;2023-02-12T03:26:47;141913.66;;;1.18;54.73
8280;BME280;8335;42.646;23.380;2023-02-12T03:29:15;141907.53;;;1.16;54.55
8280;BME280;8335;42.646;23.380;2023-02-12T03:31:53;141911.22;;;1.17;54.30
8280;BME280;8335;42.646;23.380;2023-02-12T03:34:27;141897.63;;;1.12;54.54
8280;BME280;8335;42.646;23.380;2023-02-12T03:37:01;141892.72;;;1.09;54.54
8280;BME280;8335;42.646;23.380;2023-02-12T03:39:33;141875.47;;;1.02;54.92
8280;BME280;8335;42.646;23.380;2023-02-12T03:42:05;141877.91;;;1.03;55.24
8280;BME280;8335;42.646;23.380;2023-02-12T03:44:43;141837.25;;;0.87;56.06
8280;BME280;8335;42.646;23.380;2023-02-12T03:47:19;141818.75;;;0.79;56.62
8280;BME280;8335;42.646;23.380;2023-02-12T03:49:51;141850.78;;;0.92;56.56
8280;BME280;8335;42.646;23.380;2023-02-12T03:52:19;141860.66;;;0.96;56.41
8280;BME280;8335;42.646;23.380;2023-02-12T03:54:46;141845.84;;;0.90;57.03
8280;BME280;8335;42.646;23.380;2023-02-12T03:57:15;141838.47;;;0.87;57.14
8280;BME280;8335;42.646;23.380;2023-02-12T03:59:43;141822.44;;;0.80;57.69
8280;BME280;8335;42.646;23.380;2023-02-12T04:02:10;141824.91;;;0.81;57.76
8280;BME280;8335;42.646;23.380;2023-02-12T04:04:39;141839.72;;;0.88;57.35
8280;BME280;8335;42.646;23.380;2023-02-12T04:07:06;141836.03;;;0.86;58.04
8280;BME280;8335;42.646;23.380;2023-02-12T04:09:33;141838.47;;;0.87;58.28
8280;BME280;8335;42.646;23.380;2023-02-12T04:12:12;141859.44;;;0.96;57.46
8280;BME280;8335;42.646;23.380;2023-02-12T04:14:48;141879.16;;;1.04;58.19
8280;BME280;8335;42.646;23.380;2023-02-12T04:17:21;141839.72;;;0.88;57.52
8280;BME280;8335;42.646;23.380;2023-02-12T04:20:03;141868.03;;;0.99;57.32
8280;BME280;8335;42.646;23.380;2023-02-12T04:22:44;141866.81;;;0.99;57.92
8280;BME280;8335;42.646;23.380;2023-02-12T04:25:25;141882.84;;;1.05;57.71
8280;BME280;8335;42.646;23.380;2023-02-12T04:28:03;141884.06;;;1.06;58.05
8280;BME280;8335;42.646;23.380;2023-02-12T04:30:35;141868.03;;;0.99;58.19
8280;BME280;8335;42.646;23.380;2023-02-12T04:33:04;141856.97;;;0.95;58.05
8280;BME280;8335;42.646;23.380;2023-02-12T04:35:37;141837.25;;;0.87;57.66
8280;BME280;8335;42.646;23.380;2023-02-12T04:38:09;141823.69;;;0.81;58.29
8280;BME280;8335;42.646;23.380;2023-02-12T04:40:39;141769.44;;;0.59;58.29
8280;BME280;8335;42.646;23.380;2023-02-12T04:43:07;141779.28;;;0.63;58.92
8280;BME280;8335;42.646;23.380;2023-02-12T04:45:35;141770.69;;;0.59;59.17
8280;BME280;8335;42.646;23.380;2023-02-12T04:48:03;141742.31;;;0.47;59.27
8280;BME280;8335;42.646;23.380;2023-02-12T04:50:37;141775.59;;;0.61;59.37
8280;BME280;8335;42.646;23.380;2023-02-12T04:53:05;141778.06;;;0.62;59.62
8280;BME280;8335;42.646;23.380;2023-02-12T04:55:31;141776.81;;;0.62;59.80
8280;BME280;8335;42.646;23.380;2023-02-12T04:57:58;141791.63;;;0.68;59.98
8280;BME280;8335;42.646;23.380;2023-02-12T05:00:25;141805.19;;;0.73;59.74
8280;BME280;8335;42.646;23.380;2023-02-12T05:02:52;141821.22;;;0.80;59.52
8280;BME280;8335;42.646;23.380;2023-02-12T05:05:19;141845.84;;;0.90;59.47
8280;BME280;8335;42.646;23.380;2023-02-12T05:07:47;141870.53;;;1.00;59.34
8280;BME280;8335;42.646;23.380;2023-02-12T05:10:14;141828.59;;;0.83;59.73
8280;BME280;8335;42.646;23.380;2023-02-12T05:12:41;141874.22;;;1.02;59.10
8280;BME280;8335;42.646;23.380;2023-02-12T05:15:08;141882.84;;;1.05;58.87
8280;BME280;8335;42.646;23.380;2023-02-12T05:17:35;141877.91;;;1.03;59.26
8280;BME280;8335;42.646;23.380;2023-02-12T05:20:02;141908.75;;;1.16;58.15
8280;BME280;8335;42.646;23.380;2023-02-12T05:22:29;141917.38;;;1.20;58.72
8280;BME280;8335;42.646;23.380;2023-02-12T05:24:57;141916.13;;;1.19;58.34
8280;BME280;8335;42.646;23.380;2023-02-12T05:27:24;141905.06;;;1.15;58.55
8280;BME280;8335;42.646;23.380;2023-02-12T05:29:51;141903.78;;;1.14;58.62
8280;BME280;8335;42.646;23.380;2023-02-12T05:32:18;141895.19;;;1.10;59.54
8280;BME280;8335;42.646;23.380;2023-02-12T05:34:44;141896.41;;;1.11;60.52
8280;BME280;8335;42.646;23.380;2023-02-12T05:37:11;141885.28;;;1.06;61.68
8280;BME280;8335;42.646;23.380;2023-02-12T05:39:38;141897.63;;;1.12;62.06
8280;BME280;8335;42.646;23.380;2023-02-12T05:42:06;141895.19;;;1.10;62.52
8280;BME280;8335;42.646;23.380;2023-02-12T05:44:33;141884.06;;;1.06;62.78
8280;BME280;8335;42.646;23.380;2023-02-12T05:47:00;141891.50;;;1.09;63.90
8280;BME280;8335;42.646;23.380;2023-02-12T05:49:27;141887.81;;;1.07;63.40
8280;BME280;8335;42.646;23.380;2023-02-12T05:51:54;141868.03;;;0.99;63.48
8280;BME280;8335;42.646;23.380;2023-02-12T05:54:20;141889.03;;;1.08;63.58
8280;BME280;8335;42.646;23.380;2023-02-12T05:56:47;141874.22;;;1.02;63.92
8280;BME280;8335;42.646;23.380;2023-02-12T05:59:17;141895.19;;;1.10;65.04
8280;BME280;8335;42.646;23.380;2023-02-12T06:01:45;141792.84;;;0.68;66.75
8280;BME280;8335;42.646;23.380;2023-02-12T06:04:14;141900.09;;;1.13;66.58
8280;BME280;8335;42.646;23.380;2023-02-12T06:06:41;141875.47;;;1.02;66.32
8280;BME280;8335;42.646;23.380;2023-02-12T06:09:08;141884.06;;;1.06;67.18
8280;BME280;8335;42.646;23.380;2023-02-12T06:11:35;141897.63;;;1.12;67.36
8280;BME280;8335;42.646;23.380;2023-02-12T06:14:03;141916.13;;;1.19;67.64
8280;BME280;8335;42.646;23.380;2023-02-12T06:16:32;141895.19;;;1.10;68.21
8280;BME280;8335;42.646;23.380;2023-02-12T06:19:00;141891.50;;;1.09;69.29
8280;BME280;8335;42.646;23.380;2023-02-12T06:21:28;141887.81;;;1.07;68.85
8280;BME280;8335;42.646;23.380;2023-02-12T06:23:55;141927.25;;;1.24;69.44
8280;BME280;8335;42.646;23.380;2023-02-12T06:26:22;141877.91;;;1.03;70.02
8280;BME280;8335;42.646;23.380;2023-02-12T06:28:49;141918.59;;;1.20;71.19
8280;BME280;8335;42.646;23.380;2023-02-12T06:31:18;141927.25;;;1.24;71.94
8280;BME280;8335;42.646;23.380;2023-02-12T06:33:48;141901.31;;;1.13;73.50
8280;BME280;8335;42.646;23.380;2023-02-12T06:36:15;141911.22;;;1.17;74.65
8280;BME280;8335;42.646;23.380;2023-02-12T06:38:42;141885.28;;;1.06;75.41
8280;BME280;8335;42.646;23.380;2023-02-12T06:41:09;141917.38;;;1.20;75.14
8280;BME280;8335;42.646;23.380;2023-02-12T06:43:35;141923.56;;;1.22;75.90
8280;BME280;8335;42.646;23.380;2023-02-12T06:46:03;141929.72;;;1.25;76.65
8280;BME280;8335;42.646;23.380;2023-02-12T06:48:31;141923.56;;;1.22;77.90
8280;BME280;8335;42.646;23.380;2023-02-12T06:51:05;141934.63;;;1.27;78.24
8280;BME280;8335;42.646;23.380;2023-02-12T06:53:32;141926.03;;;1.23;79.01
8280;BME280;8335;42.646;23.380;2023-02-12T06:56:00;141908.75;;;1.16;80.16
8280;BME280;8335;42.646;23.380;2023-02-12T06:58:27;141916.13;;;1.19;80.64
8280;BME280;8335;42.646;23.380;2023-02-12T07:00:54;141907.53;;;1.16;80.72
8280;BME280;8335;42.646;23.380;2023-02-12T07:03:20;141935.84;;;1.27;80.96
8280;BME280;8335;42.646;23.380;2023-02-12T07:05:47;141922.31;;;1.22;80.41
8280;BME280;8335;42.646;23.380;2023-02-12T07:08:15;141917.38;;;1.20;80.46
8280;BME280;8335;42.646;23.380;2023-02-12T07:10:47;141908.75;;;1.16;80.96
8280;BME280;8335;42.646;23.380;2023-02-12T07:13:14;141913.66;;;1.18;81.03
8280;BME280;8335;42.646;23.380;2023-02-12T07:15:40;141924.78;;;1.23;80.69
8280;BME280;8335;42.646;23.380;2023-02-12T07:18:07;141922.31;;;1.22;80.46
8280;BME280;8335;42.646;23.380;2023-02-12T07:20:34;141930.94;;;1.25;80.39
8280;BME280;8335;42.646;23.380;2023-02-12T07:23:01;141896.41;;;1.11;81.00
8280;BME280;8335;42.646;23.380;2023-02-12T07:25:29;141884.06;;;1.06;81.41
8280;BME280;8335;42.646;23.380;2023-02-12T07:27:55;141884.06;;;1.06;81.61
8280;BME280;8335;42.646;23.380;2023-02-12T07:30:22;141890.25;;;1.08;81.76
8280;BME280;8335;42.646;23.380;2023-02-12T07:32:49;141906.28;;;1.15;81.42
8280;BME280;8335;42.646;23.380;2023-02-12T07:35:16;141905.06;;;1.15;81.51
8280;BME280;8335;42.646;23.380;2023-02-12T07:37:42;141845.84;;;0.90;81.51
8280;BME280;8335;42.646;23.380;2023-02-12T07:40:09;141906.28;;;1.15;81.27
8280;BME280;8335;42.646;23.380;2023-02-12T07:42:38;141918.59;;;1.20;81.65
8280;BME280;8335;42.646;23.380;2023-02-12T07:45:05;141921.06;;;1.21;81.95
8280;BME280;8335;42.646;23.380;2023-02-12T07:47:32;141935.84;;;1.27;82.17
8280;BME280;8335;42.646;23.380;2023-02-12T07:50:00;141949.44;;;1.33;81.39
8280;BME280;8335;42.646;23.380;2023-02-12T07:52:26;141928.47;;;1.24;81.71
8280;BME280;8335;42.646;23.380;2023-02-12T07:54:53;141903.78;;;1.14;82.70
8280;BME280;8335;42.646;23.380;2023-02-12T07:57:20;141922.31;;;1.22;82.22
8280;BME280;8335;42.646;23.380;2023-02-12T07:59:48;141927.25;;;1.24;82.78
8280;BME280;8335;42.646;23.380;2023-02-12T08:02:15;141912.44;;;1.18;83.23
8280;BME280;8335;42.646;23.380;2023-02-12T08:04:41;141911.22;;;1.17;82.99
8280;BME280;8335;42.646;23.380;2023-02-12T08:07:08;141924.78;;;1.23;83.10
8280;BME280;8335;42.646;23.380;2023-02-12T08:09:35;141950.66;;;1.33;83.58
8280;BME280;8335;42.646;23.380;2023-02-12T08:12:02;141966.69;;;1.40;82.66
8280;BME280;8335;42.646;23.380;2023-02-12T08:14:28;141971.63;;;1.42;82.97
8280;BME280;8335;42.646;23.380;2023-02-12T08:16:57;141858.19;;;0.95;82.37
8280;BME280;8335;42.646;23.380;2023-02-12T08:19:23;141956.84;;;1.36;82.98
8280;BME280;8335;42.646;23.380;2023-02-12T08:21:51;141926.03;;;1.23;83.13
8280;BME280;8335;42.646;23.380;2023-02-12T08:24:18;141934.63;;;1.27;82.90
8280;BME280;8335;42.646;23.380;2023-02-12T08:26:46;141959.31;;;1.37;83.25
8280;BME280;8335;42.646;23.380;2023-02-12T08:29:15;141966.69;;;1.40;83.12
8280;BME280;8335;42.646;23.380;2023-02-12T08:31:43;141823.69;;;0.81;83.11
8280;BME280;8335;42.646;23.380;2023-02-12T08:34:17;141972.84;;;1.43;83.34
8280;BME280;8335;42.646;23.380;2023-02-12T08:36:45;141959.31;;;1.37;83.66
8280;BME280;8335;42.646;23.380;2023-02-12T08:39:13;141967.94;;;1.41;83.63
8280;BME280;8335;42.646;23.380;2023-02-12T08:41:40;141960.53;;;1.37;83.55
8280;BME280;8335;42.646;23.380;2023-02-12T08:44:08;141869.25;;;1.00;83.85
8280;BME280;8335;42.646;23.380;2023-02-12T08:46:37;141966.69;;;1.40;84.07
8280;BME280;8335;42.646;23.380;2023-02-12T08:49:05;141979.03;;;1.45;83.43
8280;BME280;8335;42.646;23.380;2023-02-12T08:51:38;141970.38;;;1.42;84.52
8280;BME280;8335;42.646;23.380;2023-02-12T08:54:07;141975.34;;;1.44;83.77
8280;BME280;8335;42.646;23.380;2023-02-12T08:56:35;141958.09;;;1.36;84.11
8280;BME280;8335;42.646;23.380;2023-02-12T08:59:04;141958.09;;;1.36;83.50
8280;BME280;8335;42.646;23.380;2023-02-12T09:01:33;142002.47;;;1.55;83.79
8280;BME280;8335;42.646;23.380;2023-02-12T09:04:03;141992.63;;;1.51;83.53
8280;BME280;8335;42.646;23.380;2023-02-12T09:06:31;141976.59;;;1.44;83.91
8280;BME280;8335;42.646;23.380;2023-02-12T09:09:00;141955.59;;;1.35;83.87
8280;BME280;8335;42.646;23.380;2023-02-12T09:11:28;141979.03;;;1.45;84.01
8280;BME280;8335;42.646;23.380;2023-02-12T09:13:56;141987.66;;;1.49;84.82
8280;BME280;8335;42.646;23.380;2023-02-12T09:16:24;142003.69;;;1.55;84.06
8280;BME280;8335;42.646;23.380;2023-02-12T09:18:51;142028.41;;;1.65;83.83
8280;BME280;8335;42.646;23.380;2023-02-12T09:21:19;142045.66;;;1.73;84.02
8280;BME280;8335;42.646;23.380;2023-02-12T09:23:46;142012.34;;;1.59;83.55
8280;BME280;8335;42.646;23.380;2023-02-12T09:26:19;142003.69;;;1.55;83.99
8280;BME280;8335;42.646;23.380;2023-02-12T09:28:47;142017.28;;;1.61;84.06
8280;BME280;8335;42.646;23.380;2023-02-12T09:31:15;141992.63;;;1.51;84.89
8280;BME280;8335;42.646;23.380;2023-02-12T09:33:43;142028.41;;;1.65;85.29
8280;BME280;8335;42.646;23.380;2023-02-12T09:36:12;142045.66;;;1.73;85.13
8280;BME280;8335;42.646;23.380;2023-02-12T09:38:40;142076.47;;;1.85;84.19
8280;BME280;8335;42.646;23.380;2023-02-12T09:44:16;142074.00;;;1.84;84.77
8280;BME280;8335;42.646;23.380;2023-02-12T09:46:48;142096.25;;;1.93;84.03
8280;BME280;8335;42.646;23.380;2023-02-12T09:49:24;142108.56;;;1.99;83.70
8280;BME280;8335;42.646;23.380;2023-02-12T09:51:55;142128.31;;;2.07;83.64
8280;BME280;8335;42.646;23.380;2023-02-12T09:54:28;142138.19;;;2.11;82.93
8280;BME280;8335;42.646;23.380;2023-02-12T09:56:59;142161.63;;;2.20;83.21
8280;BME280;8335;42.646;23.380;2023-02-12T09:59:32;142162.84;;;2.21;82.03
8280;BME280;8335;42.646;23.380;2023-02-12T10:02:02;142159.16;;;2.19;81.82
8280;BME280;8335;42.646;23.380;2023-02-12T10:04:32;142193.72;;;2.34;81.75
8280;BME280;8335;42.646;23.380;2023-02-12T10:07:05;142251.78;;;2.58;80.88
8280;BME280;8335;42.646;23.380;2023-02-12T10:09:50;142292.50;;;2.74;80.09
8280;BME280;8335;42.646;23.380;2023-02-12T10:12:29;142303.66;;;2.79;79.30
8280;BME280;8335;42.646;23.380;2023-02-12T10:15:12;142346.84;;;2.97;79.61
8280;BME280;8335;42.646;23.380;2023-02-12T10:17:42;142395.03;;;3.17;78.48
8280;BME280;8335;42.646;23.380;2023-02-12T10:23:35;142560.59;;;3.85;75.45
8280;BME280;8335;42.646;23.380;2023-02-12T10:26:13;142592.72;;;3.98;75.06
8280;BME280;8335;42.646;23.380;2023-02-12T10:28:44;142598.94;;;4.01;74.08
8280;BME280;8335;42.646;23.380;2023-02-12T10:31:16;142603.88;;;4.03;73.68
8280;BME280;8335;42.646;23.380;2023-02-12T10:33:47;142612.50;;;4.06;73.43
8280;BME280;8335;42.646;23.380;2023-02-12T10:36:18;142619.94;;;4.09;72.64
8280;BME280;8335;42.646;23.380;2023-02-12T10:38:54;142596.44;;;4.00;73.30
8280;BME280;8335;42.646;23.380;2023-02-12T10:41:23;142592.72;;;3.98;73.92
8280;BME280;8335;42.646;23.380;2023-02-12T10:43:53;142582.88;;;3.94;73.50
8280;BME280;8335;42.646;23.380;2023-02-12T10:46:21;142584.09;;;3.95;73.40
8280;BME280;8335;42.646;23.380;2023-02-12T10:48:51;142581.63;;;3.94;73.60
8280;BME280;8335;42.646;23.380;2023-02-12T10:51:37;142580.41;;;3.93;73.39
8280;BME280;8335;42.646;23.380;2023-02-12T10:54:33;142581.63;;;3.94;73.46
8280;BME280;8335;42.646;23.380;2023-02-12T10:57:07;142579.13;;;3.93;73.99
8280;BME280;8335;42.646;23.380;2023-02-12T10:59:35;142571.72;;;3.90;74.17
8280;BME280;8335;42.646;23.380;2023-02-12T11:02:04;142571.72;;;3.90;73.96
8280;BME280;8335;42.646;23.380;2023-02-12T11:04:42;142577.91;;;3.92;73.92
8280;BME280;8335;42.646;23.380;2023-02-12T11:07:09;142561.81;;;3.85;74.66
8280;BME280;8335;42.646;23.380;2023-02-12T11:09:37;142610.03;;;4.05;74.58
8280;BME280;8335;42.646;23.380;2023-02-12T11:12:18;142602.66;;;4.02;74.12
8280;BME280;8335;42.646;23.380;2023-02-12T11:14:48;142640.97;;;4.18;73.38
8280;BME280;8335;42.646;23.380;2023-02-12T11:17:22;142649.63;;;4.22;73.59
8280;BME280;8335;42.646;23.380;2023-02-12T11:20:07;142661.97;;;4.27;73.30
8280;BME280;8335;42.646;23.380;2023-02-12T11:22:49;142717.63;;;4.50;72.35
8280;BME280;8335;42.646;23.380;2023-02-12T11:25:17;142734.94;;;4.57;71.88
8280;BME280;8335;42.646;23.380;2023-02-12T11:27:44;142747.31;;;4.62;71.40
8280;BME280;8335;42.646;23.380;2023-02-12T11:30:14;142657.03;;;4.25;71.59
8280;BME280;8335;42.646;23.380;2023-02-12T11:32:43;142780.72;;;4.76;71.41
8280;BME280;8335;42.646;23.380;2023-02-12T11:35:13;142812.88;;;4.89;70.77
8280;BME280;8335;42.646;23.380;2023-02-12T11:37:44;142826.50;;;4.94;70.86
8280;BME280;8335;42.646;23.380;2023-02-12T11:40:20;142868.56;;;5.12;70.04
8280;BME280;8335;42.646;23.380;2023-02-12T11:42:50;142869.78;;;5.12;69.08
8280;BME280;8335;42.646;23.380;2023-02-12T11:45:19;142876.00;;;5.15;69.09
8280;BME280;8335;42.646;23.380;2023-02-12T11:47:49;142898.25;;;5.24;69.45
8280;BME280;8335;42.646;23.380;2023-02-12T11:50:23;142899.50;;;5.24;69.39
8280;BME280;8335;42.646;23.380;2023-02-12T11:52:53;142802.97;;;4.85;69.33
8280;BME280;8335;42.646;23.380;2023-02-12T11:55:24;142905.66;;;5.27;69.54
8280;BME280;8335;42.646;23.380;2023-02-12T11:57:52;142874.78;;;5.14;68.57
8280;BME280;8335;42.646;23.380;2023-02-12T12:00:23;142885.88;;;5.19;69.17
8280;BME280;8335;42.646;23.380;2023-02-12T12:02:56;142838.84;;;5.00;69.40
8280;BME280;8335;42.646;23.380;2023-02-12T12:05:29;142894.56;;;5.22;68.88
8280;BME280;8335;42.646;23.380;2023-02-12T12:08:01;142867.31;;;5.11;68.78
8280;BME280;8335;42.646;23.380;2023-02-12T12:10:34;142882.19;;;5.17;68.41
8280;BME280;8335;42.646;23.380;2023-02-12T12:13:07;142853.69;;;5.06;69.12
8280;BME280;8335;42.646;23.380;2023-02-12T12:15:38;142898.25;;;5.24;68.57
8280;BME280;8335;42.646;23.380;2023-02-12T12:18:31;142893.31;;;5.22;67.90
8280;BME280;8335;42.646;23.380;2023-02-12T12:21:21;142857.44;;;5.07;69.19
8280;BME280;8335;42.646;23.380;2023-02-12T12:23:54;142840.13;;;5.00;69.82
8280;BME280;8335;42.646;23.380;2023-02-12T12:26:26;142892.09;;;5.21;69.34
8280;BME280;8335;42.646;23.380;2023-02-12T12:28:58;142913.13;;;5.30;68.51
8280;BME280;8335;42.646;23.380;2023-02-12T12:31:31;142913.13;;;5.30;67.76
8280;BME280;8335;42.646;23.380;2023-02-12T12:34:03;142764.63;;;4.69;68.44
8280;BME280;8335;42.646;23.380;2023-02-12T12:37:14;142915.59;;;5.31;68.82
8280;BME280;8335;42.646;23.380;2023-02-12T12:39:56;142893.31;;;5.22;68.12
8280;BME280;8335;42.646;23.380;2023-02-12T12:42:54;142887.09;;;5.19;68.48
8280;BME280;8335;42.646;23.380;2023-02-12T12:45:34;142897.03;;;5.23;68.43
8280;BME280;8335;42.646;23.380;2023-02-12T12:48:16;142895.81;;;5.23;69.18
8280;BME280;8335;42.646;23.380;2023-02-12T12:51:02;142833.91;;;4.97;68.89
8280;BME280;8335;42.646;23.380;2023-02-12T12:53:42;142830.19;;;4.96;69.08
8280;BME280;8335;42.646;23.380;2023-02-12T12:56:28;142869.78;;;5.12;68.39
8280;BME280;8335;42.646;23.380;2023-02-12T12:59:14;142893.31;;;5.22;67.88
8280;BME280;8335;42.646;23.380;2023-02-12T13:01:59;142861.16;;;5.09;68.38
8280;BME280;8335;42.646;23.380;2023-02-12T13:04:54;142832.69;;;4.97;68.71
8280;BME280;8335;42.646;23.380;2023-02-12T13:07:43;142809.19;;;4.87;69.40
8280;BME280;8335;42.646;23.380;2023-02-12T13:10:18;142775.78;;;4.74;68.69
8280;BME280;8335;42.646;23.380;2023-02-12T13:13:12;142779.47;;;4.75;69.51
8280;BME280;8335;42.646;23.380;2023-02-12T13:15:48;142814.13;;;4.89;69.14
8280;BME280;8335;42.646;23.380;2023-02-12T13:18:24;142833.91;;;4.97;69.29
8280;BME280;8335;42.646;23.380;2023-02-12T13:21:02;142843.81;;;5.02;69.19
8280;BME280;8335;42.646;23.380;2023-02-12T13:23:37;142825.28;;;4.94;69.14
8280;BME280;8335;42.646;23.380;2023-02-12T13:26:13;142835.13;;;4.98;68.96
8280;BME280;8335;42.646;23.380;2023-02-12T13:28:46;142791.84;;;4.80;69.84
8280;BME280;8335;42.646;23.380;2023-02-12T13:31:18;142676.81;;;4.33;70.88
8280;BME280;8335;42.646;23.380;2023-02-12T13:33:49;142664.44;;;4.28;72.01
8280;BME280;8335;42.646;23.380;2023-02-12T13:36:17;142679.28;;;4.34;72.30
8280;BME280;8335;42.646;23.380;2023-02-12T13:38:47;142626.13;;;4.12;72.66